Aérodrome :
LOGIN :

S'inscrire | Disclaimer

   EN    FR    IT 

 










Légende :    VFR   VFR Marginal   IFR   IFR Intensif   IFR Très Intensif
Visi : 
Plafond : 
>= 8 km
>= 3000ft
5 à 8 km
1000 à 3000 ft
1500m à 5 km
500 à 1000 ft
800 à 1500m
200 à 500 ft
< 800m
< 200 ft
Symboles :   Orages  Brouillard  Fortes neiges  Fortes précipitations  Vent > 20 kt
SIGMETs :   Divers  Orages  Givrage  Turbulence  Onde Orograph.  Cendres Volcan.






- Altitude de l'aérodrome : 357 ft
- Code IATA : TUF


LFOT - Tours

DERNIER METAR :
  • 201130Z AUTO 12006KT 090V150 CAVOK 06/02 Q1010 NOSIG

METARs EXPIRÉS :
  • 201100Z AUTO 10008KT CAVOK 06/03 Q1010 NOSIG
  • 201030Z AUTO 10007KT CAVOK 05/02 Q1011 NOSIG
  • 201000Z AUTO 09007KT CAVOK 04/01 Q1011 NOSIG
  • 200930Z AUTO 10010KT CAVOK 03/01 Q1011 NOSIG
  • 200900Z AUTO 11008KT CAVOK 02/00 Q1011 NOSIG

TAF TAF LFOT
Valide du 20 à 06h jusqu'au 21 à 06h UTC


200500Z 2006/2106 09007KT CAVOK
TEMPO 2019/2106 2000 BR
PROB30
TEMPO 2022/2106 0200 FG VV///



MET'MAP, la Météo Aéronautique d'un coup d'oeil ! - Copyright ORBIFLY Décembre 2007 - Disclaimer

ORBIFLY MET'MAP TEAM :

Programmation & Développement : Alexandra Zaïnal
Conception & Développement : Baudouin d'Aumeries
Co-Programmation & Développement : Marc-Olivier Méhu
Soutien technique & logistique : Manuel Goepfert

Contact : metmap@orbifly.com




SOURCES & CREDITS :

   NOAA